Time;durP1;ratioP1;P1;durP2;ratioP2;P2;SDS_P1;SDS_P2;PMS_P1;PMS_P2;Temp;Humidity;BMP_temperature;BMP_pressure;BME280_temperature;BME280_humidity;BME280_pressure;Samples;Min_cycle;Max_cycle;Signal;HPM_P1;HPM_P2
2023/05/29 00:00:40;;;;;;;3.33;1.63;;;20.00;51.30;;;;;;5046770;28;20084;-75
2023/05/29 00:03:06;;;;;;;4.20;1.83;;;19.90;51.30;;;;;;5013471;28;20046;-76
2023/05/29 00:05:31;;;;;;;3.53;1.92;;;19.90;52.00;;;;;;5013707;28;20097;-76
2023/05/29 00:07:57;;;;;;;3.30;1.63;;;19.90;51.40;;;;;;5014113;28;20045;-75
2023/05/29 00:10:23;;;;;;;3.28;1.40;;;19.80;51.40;;;;;;4998211;28;20030;-75
2023/05/29 00:12:48;;;;;;;4.53;1.80;;;19.80;51.50;;;;;;4997316;28;20497;-75
2023/05/29 00:15:14;;;;;;;4.10;1.83;;;19.70;51.50;;;;;;5047368;28;20038;-75
2023/05/29 00:17:40;;;;;;;2.75;1.55;;;19.70;51.60;;;;;;5013615;28;20030;-75
2023/05/29 00:20:09;;;;;;;3.70;1.80;;;19.60;51.60;;;;;;4997223;28;20041;-75
2023/05/29 00:22:37;;;;;;;3.30;1.60;;;19.60;51.60;;;;;;5013957;28;20586;-75
2023/05/29 00:25:05;;;;;;;4.03;1.70;;;19.50;51.60;;;;;;5013673;28;20046;-75
2023/05/29 00:27:32;;;;;;;4.07;1.67;;;19.50;51.60;;;;;;5013649;28;20033;-75
2023/05/29 00:29:59;;;;;;;3.75;1.60;;;19.50;51.70;;;;;;5014379;28;20034;-75
2023/05/29 00:32:25;;;;;;;3.30;1.60;;;19.40;51.60;;;;;;5029858;28;20029;-75
2023/05/29 00:34:51;;;;;;;3.08;1.50;;;19.40;51.70;;;;;;4996879;28;20088;-75
2023/05/29 00:37:17;;;;;;;3.22;1.50;;;19.30;51.70;;;;;;5046305;28;20065;-75
2023/05/29 00:39:43;;;;;;;3.53;1.52;;;19.20;51.80;;;;;;5013045;28;20060;-75
2023/05/29 00:42:09;;;;;;;3.42;1.55;;;19.20;51.80;;;;;;5013480;28;20439;-75
2023/05/29 00:44:35;;;;;;;3.83;1.60;;;19.10;51.80;;;;;;4996738;28;20555;-75
2023/05/29 00:47:01;;;;;;;3.67;1.58;;;19.10;51.90;;;;;;4997535;28;20275;-75
2023/05/29 00:49:27;;;;;;;4.15;1.70;;;19.10;52.00;;;;;;4996563;28;20506;-75
2023/05/29 00:51:55;;;;;;;3.05;1.65;;;19.00;52.00;;;;;;5013180;28;20038;-75
2023/05/29 00:54:28;;;;;;;4.25;1.50;;;19.00;52.10;;;;;;5013987;28;20037;-76
2023/05/29 00:56:54;;;;;;;3.85;1.52;;;18.90;52.10;;;;;;4996445;28;20069;-75
2023/05/29 00:59:22;;;;;;;4.00;1.75;;;18.90;52.10;;;;;;5013699;28;20038;-75
2023/05/29 01:01:52;;;;;;;3.33;1.50;;;18.80;52.10;;;;;;5045809;28;20099;-76
2023/05/29 01:04:20;;;;;;;3.00;1.50;;;18.80;52.20;;;;;;5045258;28;20506;-75
2023/05/29 01:06:46;;;;;;;4.07;1.65;;;18.70;52.20;;;;;;5012895;28;20037;-75
2023/05/29 01:09:13;;;;;;;4.10;1.52;;;18.70;52.20;;;;;;4996620;28;20038;-76
2023/05/29 01:12:07;;;;;;;3.33;1.50;;;18.60;52.20;;;;;;5012752;28;20091;-75
2023/05/29 01:14:44;;;;;;;2.65;1.33;;;18.50;52.30;;;;;;5013957;28;20505;-75
2023/05/29 01:17:25;;;;;;;3.03;1.50;;;18.50;52.30;;;;;;5029102;28;20084;-75
2023/05/29 01:20:15;;;;;;;3.58;1.52;;;18.50;52.30;;;;;;5013612;28;20549;-75
2023/05/29 01:22:53;;;;;;;2.75;1.30;;;18.40;52.30;;;;;;5013218;28;20026;-76
2023/05/29 01:25:27;;;;;;;3.47;1.45;;;18.40;52.30;;;;;;5012948;28;20104;-75
2023/05/29 01:27:55;;;;;;;4.82;1.73;;;18.30;52.40;;;;;;4996985;28;20096;-75
2023/05/29 01:30:23;;;;;;;3.30;1.40;;;18.20;52.40;;;;;;5013077;28;20054;-75
2023/05/29 01:32:51;;;;;;;3.63;1.50;;;18.20;52.40;;;;;;5013354;28;20382;-76
2023/05/29 01:35:16;;;;;;;3.90;1.42;;;18.20;52.50;;;;;;5028548;28;20471;-75
2023/05/29 01:37:42;;;;;;;3.63;1.33;;;18.10;52.50;;;;;;5045144;28;20095;-75
2023/05/29 01:40:09;;;;;;;3.80;1.40;;;18.10;52.50;;;;;;4996112;28;20034;-75
2023/05/29 01:42:35;;;;;;;2.80;1.45;;;18.00;52.60;;;;;;5013904;28;20074;-75
2023/05/29 01:45:03;;;;;;;2.85;1.20;;;18.00;52.60;;;;;;5013034;28;20030;-75
2023/05/29 01:47:29;;;;;;;2.92;1.38;;;18.00;52.70;;;;;;5012271;28;20494;-75
2023/05/29 01:49:56;;;;;;;3.85;1.42;;;17.90;52.70;;;;;;4995977;28;20038;-75
2023/05/29 01:52:22;;;;;;;2.90;1.40;;;17.90;52.80;;;;;;5012060;28;20038;-75
2023/05/29 01:54:47;;;;;;;3.22;1.35;;;17.80;52.80;;;;;;5013253;28;20477;-75
2023/05/29 01:57:13;;;;;;;3.08;1.42;;;17.80;52.80;;;;;;5045136;28;20355;-75
2023/05/29 01:59:41;;;;;;;2.55;1.52;;;17.80;52.90;;;;;;4995778;28;20375;-75
2023/05/29 02:02:11;;;;;;;3.33;1.50;;;17.70;52.80;;;;;;5012338;28;20040;-75
2023/05/29 02:04:37;;;;;;;3.72;1.50;;;17.70;53.00;;;;;;5013686;28;20058;-75
2023/05/29 02:07:03;;;;;;;2.15;1.25;;;17.70;52.90;;;;;;5013230;28;20062;-75
2023/05/29 02:09:30;;;;;;;3.03;1.45;;;17.70;53.60;;;;;;5013333;28;20072;-75
2023/05/29 02:11:56;;;;;;;3.83;1.30;;;17.60;53.00;;;;;;5012706;28;20379;-75
2023/05/29 02:14:24;;;;;;;2.97;1.33;;;17.60;53.10;;;;;;5012913;28;20034;-76
2023/05/29 02:16:51;;;;;;;4.72;1.95;;;17.50;53.10;;;;;;4995394;28;20133;-80
2023/05/29 02:19:18;;;;;;;1.95;1.17;;;17.50;53.10;;;;;;5012265;28;20463;-79
2023/05/29 02:21:44;;;;;;;3.90;1.50;;;17.50;53.20;;;;;;4996569;28;20367;-79
2023/05/29 02:24:10;;;;;;;4.20;1.50;;;17.40;53.10;;;;;;5012092;28;20509;-79
2023/05/29 02:26:38;;;;;;;3.85;2.00;;;17.40;53.20;;;;;;4995722;28;20061;-78
2023/05/29 02:29:07;;;;;;;2.85;1.38;;;17.40;53.20;;;;;;5045048;28;20041;-78
2023/05/29 02:31:33;;;;;;;4.90;1.40;;;17.30;53.30;;;;;;5011747;28;20060;-79
2023/05/29 02:33:59;;;;;;;3.78;1.60;;;17.30;53.30;;;;;;5013107;28;20364;-79
2023/05/29 02:36:25;;;;;;;5.53;1.50;;;17.30;53.30;;;;;;5028487;28;20418;-79
2023/05/29 02:38:51;;;;;;;1.75;1.17;;;17.20;53.30;;;;;;5012506;28;20066;-78
2023/05/29 02:41:16;;;;;;;2.88;1.40;;;17.20;53.40;;;;;;5028951;28;20062;-81
2023/05/29 02:43:42;;;;;;;3.22;1.45;;;17.10;53.40;;;;;;4995632;28;20065;-80
2023/05/29 02:46:08;;;;;;;3.35;1.13;;;17.10;53.40;;;;;;5045820;28;20370;-79
2023/05/29 02:48:34;;;;;;;3.63;1.65;;;17.10;53.50;;;;;;5015040;28;20034;-79
2023/05/29 02:50:59;;;;;;;3.00;1.50;;;17.10;53.50;;;;;;5031819;28;20084;-79
2023/05/29 02:53:25;;;;;;;2.75;1.35;;;17.00;53.50;;;;;;5015141;28;20037;-80
2023/05/29 02:55:51;;;;;;;4.28;1.77;;;17.00;53.60;;;;;;5015778;28;20383;-79
2023/05/29 02:58:17;;;;;;;2.42;1.20;;;17.00;53.60;;;;;;4999433;28;20030;-80
2023/05/29 03:00:43;;;;;;;3.13;1.25;;;16.90;53.60;;;;;;5048321;28;20030;-80
2023/05/29 03:03:09;;;;;;;2.22;1.15;;;16.90;53.70;;;;;;5015098;28;20054;-78
2023/05/29 03:05:38;;;;;;;3.03;1.42;;;16.90;53.70;;;;;;5015382;28;20037;-78
2023/05/29 03:08:04;;;;;;;3.95;1.77;;;16.80;53.70;;;;;;5015971;28;20033;-79
2023/05/29 03:10:30;;;;;;;3.67;1.40;;;16.80;53.70;;;;;;4998723;28;20033;-78
2023/05/29 03:12:55;;;;;;;4.07;1.38;;;16.80;53.80;;;;;;4998713;28;20030;-79
2023/05/29 03:15:21;;;;;;;3.85;1.52;;;16.70;53.80;;;;;;5014898;28;20038;-78
2023/05/29 03:17:47;;;;;;;3.85;1.70;;;16.70;53.90;;;;;;4998721;28;20385;-78
2023/05/29 03:20:16;;;;;;;2.80;1.17;;;16.70;53.90;;;;;;5015668;28;20026;-77
2023/05/29 03:22:42;;;;;;;3.00;1.35;;;16.70;53.90;;;;;;5014691;28;20038;-79
2023/05/29 03:25:09;;;;;;;2.97;1.42;;;16.60;53.90;;;;;;5048011;28;20368;-77
2023/05/29 03:27:35;;;;;;;3.25;1.45;;;16.60;54.00;;;;;;4998499;28;20531;-77
2023/05/29 03:30:09;;;;;;;3.00;1.23;;;16.60;54.00;;;;;;5000405;28;20061;-78
2023/05/29 03:32:35;;;;;;;3.50;1.52;;;16.60;54.10;;;;;;5014478;28;20088;-78
2023/05/29 03:35:01;;;;;;;3.75;1.50;;;16.50;54.00;;;;;;4997770;28;20042;-76
2023/05/29 03:37:27;;;;;;;3.45;1.48;;;16.50;54.10;;;;;;5014479;28;20045;-79
2023/05/29 03:39:54;;;;;;;3.38;1.40;;;16.50;54.10;;;;;;5014467;28;20468;-77
2023/05/29 03:42:20;;;;;;;4.03;1.60;;;16.40;54.10;;;;;;4998045;28;20033;-79
2023/05/29 03:44:48;;;;;;;6.40;1.60;;;16.40;54.20;;;;;;5031114;28;20061;-78
2023/05/29 03:47:15;;;;;;;3.38;1.52;;;16.40;54.20;;;;;;5046851;28;20045;-78
2023/05/29 03:49:41;;;;;;;4.45;1.50;;;16.40;54.30;;;;;;5014161;28;20198;-78
2023/05/29 03:52:06;;;;;;;5.13;1.70;;;16.30;54.30;;;;;;4997910;28;20530;-78
2023/05/29 03:54:33;;;;;;;5.43;1.40;;;16.30;54.30;;;;;;5047072;28;20478;-79
2023/05/29 03:57:01;;;;;;;2.90;1.38;;;16.30;54.30;;;;;;4997888;28;20040;-78
2023/05/29 03:59:27;;;;;;;3.33;1.52;;;16.20;54.30;;;;;;5014141;28;20120;-78
2023/05/29 04:01:53;;;;;;;2.85;1.30;;;16.20;54.40;;;;;;4997822;28;20124;-78
2023/05/29 04:04:19;;;;;;;3.53;1.50;;;16.20;54.50;;;;;;4997466;28;20068;-77
2023/05/29 04:06:45;;;;;;;3.60;1.65;;;16.20;54.40;;;;;;5014485;28;20383;-78
2023/05/29 04:09:11;;;;;;;2.83;1.40;;;16.20;54.50;;;;;;4998189;28;20025;-79
2023/05/29 04:11:38;;;;;;;4.57;1.42;;;16.10;54.50;;;;;;4997536;28;20036;-79
2023/05/29 04:14:04;;;;;;;3.00;1.30;;;16.10;54.50;;;;;;5014088;28;20046;-78
2023/05/29 04:16:30;;;;;;;4.68;1.73;;;16.10;54.50;;;;;;4997332;28;20430;-78
2023/05/29 04:18:56;;;;;;;3.47;1.50;;;16.10;54.50;;;;;;5030037;28;20034;-79
2023/05/29 04:21:25;;;;;;;2.47;1.45;;;16.00;54.60;;;;;;5030309;28;20026;-79
2023/05/29 04:23:53;;;;;;;2.70;1.48;;;16.00;54.50;;;;;;5029889;28;20044;-79
2023/05/29 04:26:24;;;;;;;2.55;1.30;;;16.00;54.60;;;;;;4996933;28;20562;-80
2023/05/29 04:28:56;;;;;;;3.25;1.40;;;16.00;54.70;;;;;;5047262;28;20111;-79
2023/05/29 04:31:26;;;;;;;4.82;1.88;;;15.90;54.60;;;;;;5029979;28;20149;-79
2023/05/29 04:33:54;;;;;;;3.22;1.40;;;15.90;54.70;;;;;;5013682;28;20199;-78
2023/05/29 04:36:25;;;;;;;2.75;1.42;;;15.90;54.70;;;;;;5030438;28;20034;-78
2023/05/29 04:38:55;;;;;;;;;;;15.90;54.80;;;;;;5046963;28;20034;-79
2023/05/29 04:41:23;;;;;;;3.72;1.38;;;15.80;54.50;;;;;;5030534;28;19913;-79
2023/05/29 04:43:55;;;;;;;3.40;1.55;;;15.80;54.50;;;;;;5014224;28;20570;-81
2023/05/29 04:46:21;;;;;;;3.70;1.45;;;15.80;54.60;;;;;;5014058;28;20041;-78
2023/05/29 04:48:47;;;;;;;2.80;1.40;;;15.80;54.70;;;;;;5013010;28;20034;-79
2023/05/29 04:51:13;;;;;;;2.35;1.40;;;15.80;54.70;;;;;;5045837;28;20062;-78
2023/05/29 04:53:41;;;;;;;2.72;1.35;;;15.80;54.80;;;;;;4980404;28;20210;-78
2023/05/29 04:56:07;;;;;;;2.72;1.60;;;15.80;54.80;;;;;;5029551;28;20038;-79
2023/05/29 04:58:33;;;;;;;3.47;1.30;;;15.70;54.80;;;;;;4996652;28;20038;-80
2023/05/29 05:00:59;;;;;;;4.97;1.50;;;15.70;54.80;;;;;;4996752;28;20084;-80
2023/05/29 05:03:33;;;;;;;5.38;1.58;;;15.70;54.90;;;;;;4996969;28;20061;-78
2023/05/29 05:06:04;;;;;;;3.13;1.20;;;15.70;54.90;;;;;;4996714;28;20018;-78
2023/05/29 05:08:32;;;;;;;3.38;1.50;;;15.70;54.90;;;;;;5028396;28;20442;-78
2023/05/29 05:10:59;;;;;;;3.50;1.45;;;15.60;54.90;;;;;;5012773;28;20428;-78
2023/05/29 05:13:25;;;;;;;4.15;1.42;;;15.60;55.00;;;;;;5029443;28;20033;-79
2023/05/29 05:15:52;;;;;;;4.32;1.80;;;15.60;55.00;;;;;;5045983;28;20041;-79
2023/05/29 05:18:18;;;;;;;2.88;1.35;;;15.60;55.00;;;;;;5029050;28;20061;-78
2023/05/29 05:20:51;;;;;;;2.35;1.20;;;15.60;55.00;;;;;;5028387;28;20026;-77
2023/05/29 05:23:17;;;;;;;2.95;1.70;;;15.60;55.00;;;;;;4996398;28;20041;-77
2023/05/29 05:25:42;;;;;;;3.97;1.58;;;15.60;55.00;;;;;;5012933;28;20034;-77
2023/05/29 05:28:09;;;;;;;3.20;1.40;;;15.60;55.10;;;;;;4996185;28;20033;-78
2023/05/29 05:30:35;;;;;;;2.90;1.40;;;15.60;55.10;;;;;;4995895;28;20041;-79
2023/05/29 05:33:01;;;;;;;3.55;1.63;;;15.60;55.10;;;;;;5012485;28;20040;-78
2023/05/29 05:35:27;;;;;;;4.15;1.50;;;15.60;55.10;;;;;;4996082;28;20038;-79
2023/05/29 05:37:52;;;;;;;3.00;1.30;;;15.50;55.10;;;;;;4980197;28;20053;-79
2023/05/29 05:40:18;;;;;;;2.55;1.40;;;15.50;55.10;;;;;;4996117;28;20053;-79
2023/05/29 05:42:52;;;;;;;4.43;1.57;;;15.50;55.10;;;;;;5045762;28;20048;-78
2023/05/29 05:45:25;;;;;;;3.03;1.40;;;15.60;55.10;;;;;;5013915;28;20037;-79
2023/05/29 05:47:51;;;;;;;3.33;1.42;;;15.50;55.10;;;;;;5028366;28;20377;-79
2023/05/29 05:50:21;;;;;;;3.10;1.75;;;15.50;55.20;;;;;;4996639;28;20100;-77
2023/05/29 05:52:47;;;;;;;3.28;1.52;;;15.50;55.10;;;;;;4996336;28;20084;-77
2023/05/29 05:55:12;;;;;;;2.40;1.42;;;15.50;55.20;;;;;;4997304;28;20152;-78
2023/05/29 05:57:38;;;;;;;3.20;1.48;;;15.50;55.20;;;;;;5014039;28;20368;-79
2023/05/29 06:00:14;;;;;;;3.45;1.50;;;15.50;55.20;;;;;;4997604;28;20041;-79
2023/05/29 06:02:44;;;;;;;3.50;1.58;;;15.50;55.30;;;;;;5028814;28;20479;-79
2023/05/29 06:05:13;;;;;;;2.50;1.30;;;15.50;55.20;;;;;;5028441;28;20049;-78
2023/05/29 06:07:40;;;;;;;3.20;1.42;;;15.50;55.30;;;;;;5012663;28;20038;-78
2023/05/29 06:10:07;;;;;;;4.13;1.60;;;15.50;55.30;;;;;;5012166;28;20030;-79
2023/05/29 06:12:34;;;;;;;2.70;1.20;;;15.50;55.30;;;;;;5045475;28;20122;-78
2023/05/29 06:15:09;;;;;;;3.45;1.40;;;15.50;55.30;;;;;;5013410;28;20038;-77
2023/05/29 06:17:36;;;;;;;3.50;1.45;;;15.50;55.30;;;;;;5011995;28;20479;-78
2023/05/29 06:20:05;;;;;;;3.78;1.20;;;15.50;55.30;;;;;;4995718;28;20034;-79
2023/05/29 06:22:31;;;;;;;1.92;1.15;;;15.50;55.30;;;;;;5015237;28;20034;-79
2023/05/29 06:24:57;;;;;;;3.25;1.50;;;15.50;55.30;;;;;;5032293;28;20033;-79
2023/05/29 06:27:25;;;;;;;2.63;1.35;;;15.50;55.30;;;;;;4999669;28;20041;-79
2023/05/29 06:29:51;;;;;;;2.90;1.33;;;15.50;55.30;;;;;;4983690;28;20041;-79
2023/05/29 06:32:17;;;;;;;4.70;1.63;;;15.50;55.40;;;;;;4999405;28;20026;-78
2023/05/29 06:34:43;;;;;;;3.97;1.70;;;15.50;55.40;;;;;;5048606;28;20125;-78
2023/05/29 06:37:09;;;;;;;2.60;1.50;;;15.50;55.40;;;;;;5015582;28;20034;-77
2023/05/29 06:39:34;;;;;;;2.05;1.20;;;15.50;55.40;;;;;;5015576;28;20030;-77
2023/05/29 06:42:01;;;;;;;2.17;1.17;;;15.50;55.40;;;;;;4983201;28;20061;-78
2023/05/29 06:44:27;;;;;;;3.47;1.38;;;15.50;55.40;;;;;;5015749;28;20104;-81
2023/05/29 06:46:54;;;;;;;3.90;1.55;;;15.50;55.40;;;;;;5015878;28;20041;-77
2023/05/29 06:49:20;;;;;;;2.35;1.33;;;15.50;55.40;;;;;;4999033;28;20038;-76
2023/05/29 06:51:46;;;;;;;5.30;1.65;;;15.50;55.40;;;;;;4999653;28;20030;-78
2023/05/29 06:54:22;;;;;;;3.25;1.40;;;15.50;55.40;;;;;;5017450;28;20055;-77
2023/05/29 06:56:48;;;;;;;3.08;1.40;;;15.50;55.40;;;;;;5031526;28;20463;-78
2023/05/29 06:59:14;;;;;;;2.08;1.20;;;15.60;55.40;;;;;;5015449;28;20032;-79
2023/05/29 07:01:40;;;;;;;2.90;1.35;;;15.50;55.40;;;;;;5014986;28;20100;-78
2023/05/29 07:04:08;;;;;;;3.28;1.48;;;15.60;55.40;;;;;;4998392;28;20431;-77
2023/05/29 07:06:35;;;;;;;2.60;1.33;;;15.60;55.40;;;;;;5031741;28;20030;-76
2023/05/29 07:09:01;;;;;;;3.15;1.45;;;15.60;55.40;;;;;;5048531;28;20049;-77
2023/05/29 07:11:27;;;;;;;3.55;1.38;;;15.60;55.40;;;;;;5015899;28;20157;-77
2023/05/29 07:13:54;;;;;;;2.22;1.20;;;15.60;55.40;;;;;;5050236;28;20034;-79
2023/05/29 07:16:20;;;;;;;3.63;1.58;;;15.70;55.50;;;;;;5015866;28;20053;-77
2023/05/29 07:18:46;;;;;;;2.97;1.50;;;15.70;55.40;;;;;;5031341;28;20034;-76
2023/05/29 07:21:12;;;;;;;3.75;1.38;;;15.70;55.40;;;;;;4998828;28;20051;-77
2023/05/29 07:23:39;;;;;;;3.38;1.38;;;15.70;55.40;;;;;;5048482;28;20072;-84
2023/05/29 07:26:05;;;;;;;2.38;1.45;;;15.70;55.40;;;;;;5047429;28;20022;-77
2023/05/29 07:28:31;;;;;;;4.38;1.25;;;15.70;55.30;;;;;;4998066;28;20037;-79
2023/05/29 07:30:56;;;;;;;3.15;1.35;;;15.80;55.40;;;;;;5030955;28;20026;-81
2023/05/29 07:33:23;;;;;;;2.40;1.10;;;15.80;55.30;;;;;;4997736;28;20109;-77
2023/05/29 07:35:49;;;;;;;2.55;1.35;;;15.80;55.30;;;;;;5015347;28;20046;-80
2023/05/29 07:38:16;;;;;;;3.58;1.60;;;15.80;55.30;;;;;;5014343;28;20034;-78
2023/05/29 07:40:42;;;;;;;3.88;1.63;;;15.90;55.30;;;;;;4998124;28;20034;-78
2023/05/29 07:43:28;;;;;;;2.53;1.30;;;16.00;55.20;;;;;;5018412;28;20096;-78
2023/05/29 07:45:58;;;;;;;2.78;1.33;;;16.00;55.10;;;;;;4998345;28;20018;-77
2023/05/29 07:48:24;;;;;;;3.00;1.25;;;16.00;55.10;;;;;;4998277;28;20157;-79
2023/05/29 07:50:51;;;;;;;3.20;1.35;;;16.10;55.10;;;;;;4998612;28;20037;-79
2023/05/29 07:53:17;;;;;;;3.13;1.42;;;16.10;55.00;;;;;;4997588;28;20458;-78
2023/05/29 07:55:44;;;;;;;3.85;1.40;;;16.20;55.10;;;;;;5014250;28;20061;-77
2023/05/29 07:58:11;;;;;;;3.25;1.33;;;16.20;55.00;;;;;;4998351;28;20145;-75
2023/05/29 08:00:38;;;;;;;2.72;1.30;;;16.30;55.00;;;;;;5014925;28;20056;-77
2023/05/29 08:03:05;;;;;;;3.63;1.30;;;16.30;54.90;;;;;;5013794;28;20053;-76
2023/05/29 08:05:33;;;;;;;2.92;1.38;;;16.40;54.90;;;;;;5014412;28;20045;-75
2023/05/29 08:08:02;;;;;;;2.70;1.33;;;16.40;54.80;;;;;;4997984;28;20030;-78
2023/05/29 08:10:28;;;;;;;2.50;1.50;;;16.50;54.70;;;;;;5013391;28;20037;-78
2023/05/29 08:12:54;;;;;;;5.00;1.73;;;16.50;54.70;;;;;;5013653;28;20038;-77
2023/05/29 08:15:20;;;;;;;2.60;1.27;;;16.60;54.70;;;;;;5046376;28;20092;-77
2023/05/29 08:17:46;;;;;;;2.97;1.40;;;16.70;54.70;;;;;;4997481;28;20038;-76
2023/05/29 08:20:12;;;;;;;2.90;1.33;;;16.70;54.60;;;;;;5013362;28;20034;-77
2023/05/29 08:22:38;;;;;;;3.30;1.38;;;16.80;54.60;;;;;;5015593;28;20080;-76
2023/05/29 08:25:04;;;;;;;3.10;1.23;;;16.90;54.60;;;;;;5013296;28;20389;-79
2023/05/29 08:27:30;;;;;;;3.40;1.50;;;16.90;54.50;;;;;;4996159;28;20030;-76
2023/05/29 08:29:56;;;;;;;3.95;1.52;;;17.00;54.50;;;;;;5046162;28;20029;-77
2023/05/29 08:32:22;;;;;;;3.63;1.42;;;17.10;54.40;;;;;;4997340;28;20030;-75
2023/05/29 08:34:48;;;;;;;2.85;1.50;;;17.10;54.30;;;;;;5046323;28;20508;-77
2023/05/29 08:37:13;;;;;;;3.00;1.30;;;17.20;54.30;;;;;;5013053;28;20033;-77
2023/05/29 08:39:39;;;;;;;1.85;1.30;;;17.20;54.30;;;;;;5047069;28;20467;-77
2023/05/29 08:42:10;;;;;;;3.22;1.38;;;17.30;54.20;;;;;;5029322;28;20498;-77
2023/05/29 08:44:39;;;;;;;2.90;1.30;;;17.40;54.20;;;;;;5013315;28;20497;-79
2023/05/29 08:47:07;;;;;;;2.53;1.10;;;17.40;54.00;;;;;;5029543;28;20030;-76
2023/05/29 08:49:43;;;;;;;3.17;1.20;;;17.50;54.00;;;;;;5013981;28;20034;-77
2023/05/29 08:52:16;;;;;;;3.30;1.38;;;17.60;54.10;;;;;;5029420;28;20030;-76
2023/05/29 08:54:41;;;;;;;2.58;1.38;;;17.60;53.90;;;;;;5014225;28;20160;-75
2023/05/29 08:57:08;;;;;;;1.45;1.20;;;17.70;53.90;;;;;;5013854;28;20109;-76
2023/05/29 08:59:36;;;;;;;3.70;1.50;;;17.80;53.90;;;;;;4996324;28;20034;-75
2023/05/29 09:02:02;;;;;;;4.38;1.50;;;17.80;53.80;;;;;;5012500;28;20052;-77
2023/05/29 09:04:31;;;;;;;1.73;1.20;;;17.90;53.70;;;;;;5045529;28;20054;-77
2023/05/29 09:06:58;;;;;;;3.05;1.40;;;17.90;53.40;;;;;;5045467;28;20034;-77
2023/05/29 09:09:27;;;;;;;5.65;1.63;;;18.00;53.10;;;;;;5028728;28;20032;-77
2023/05/29 09:11:53;;;;;;;3.42;1.38;;;18.00;53.00;;;;;;5014297;28;20025;-76
2023/05/29 09:14:42;;;;;;;4.18;1.70;;;18.10;52.80;;;;;;5013620;28;20120;-77
2023/05/29 09:17:09;;;;;;;2.72;1.67;;;18.10;52.70;;;;;;5012823;28;20038;-76
2023/05/29 09:19:37;;;;;;;2.42;1.45;;;18.20;52.50;;;;;;5013693;28;20029;-76
2023/05/29 09:22:09;;;;;;;3.50;1.60;;;18.20;52.40;;;;;;5028738;28;20041;-75
2023/05/29 09:24:38;;;;;;;2.15;1.30;;;18.30;52.30;;;;;;5028660;28;20118;-80
2023/05/29 09:27:07;;;;;;;3.38;1.70;;;18.30;52.20;;;;;;5013748;28;20433;-77
2023/05/29 09:29:33;;;;;;;3.88;1.58;;;18.40;52.00;;;;;;5013121;28;20038;-77
2023/05/29 09:32:00;;;;;;;3.33;1.58;;;18.40;51.90;;;;;;5012456;28;20064;-77
2023/05/29 09:34:27;;;;;;;4.00;1.80;;;18.50;52.00;;;;;;5012224;28;20058;-79
2023/05/29 09:36:53;;;;;;;3.97;1.60;;;18.50;51.80;;;;;;5029118;28;20034;-77
2023/05/29 09:39:19;;;;;;;6.40;1.75;;;18.60;51.70;;;;;;5012700;28;20052;-76
2023/05/29 09:41:46;;;;;;;4.45;1.73;;;18.60;51.70;;;;;;4996870;28;20034;-77
2023/05/29 09:44:15;;;;;;;3.90;1.50;;;18.70;51.60;;;;;;5045488;28;20375;-78
2023/05/29 09:46:42;;;;;;;3.47;1.73;;;18.80;51.60;;;;;;5012936;28;20037;-77
2023/05/29 09:49:16;;;;;;;3.88;1.52;;;18.80;51.60;;;;;;5013060;28;20412;-77
2023/05/29 09:51:47;;;;;;;3.42;1.70;;;18.90;51.60;;;;;;5013717;28;20044;-77
2023/05/29 09:54:18;;;;;;;4.90;1.60;;;18.90;51.50;;;;;;5044994;28;20029;-83
2023/05/29 09:56:45;;;;;;;4.38;1.60;;;19.00;51.50;;;;;;5015553;28;20038;-79
2023/05/29 09:59:13;;;;;;;5.60;1.73;;;19.10;51.40;;;;;;5016598;28;20038;-77
2023/05/29 10:01:45;;;;;;;4.38;1.90;;;19.10;51.30;;;;;;5016924;28;20026;-77
2023/05/29 10:04:12;;;;;;;3.38;1.52;;;19.20;51.20;;;;;;5031982;28;20402;-77
2023/05/29 10:06:41;;;;;;;5.03;1.65;;;19.20;51.10;;;;;;5015964;28;20065;-76
2023/05/29 10:09:12;;;;;;;4.65;1.45;;;19.30;51.10;;;;;;5032026;28;20117;-79
2023/05/29 10:11:43;;;;;;;4.25;1.80;;;19.30;51.00;;;;;;5017118;28;20112;-77
2023/05/29 10:14:14;;;;;;;4.63;1.85;;;19.40;50.90;;;;;;5048291;28;20486;-80
2023/05/29 10:16:43;;;;;;;4.47;1.90;;;19.50;50.90;;;;;;5016725;28;20026;-79
2023/05/29 10:19:15;;;;;;;4.85;1.60;;;19.50;50.90;;;;;;5048980;28;20030;-81
2023/05/29 10:21:42;;;;;;;3.78;1.60;;;19.60;51.00;;;;;;5031933;28;20065;-78
2023/05/29 10:24:10;;;;;;;3.78;1.80;;;19.70;51.00;;;;;;5032409;28;20041;-77
2023/05/29 10:26:39;;;;;;;3.97;1.50;;;19.80;51.00;;;;;;5032235;28;20033;-78
2023/05/29 10:29:19;;;;;;;2.83;1.17;;;19.90;51.00;;;;;;5017549;28;20364;-77
2023/05/29 10:31:51;;;;;;;2.67;1.40;;;20.00;51.10;;;;;;5018918;28;20108;-77
2023/05/29 10:34:32;;;;;;;3.58;1.73;;;20.00;51.10;;;;;;5000285;28;20030;-79
2023/05/29 10:37:28;;;;;;;3.03;1.67;;;20.10;51.20;;;;;;5049411;28;20037;-78
2023/05/29 10:39:53;;;;;;;2.65;1.40;;;20.20;51.20;;;;;;5016480;28;20056;-76
2023/05/29 10:42:43;;;;;;;3.65;1.50;;;20.20;51.10;;;;;;5015451;28;20068;-77
2023/05/29 10:45:11;;;;;;;3.33;1.40;;;20.30;51.20;;;;;;5032138;28;20046;-77
2023/05/29 10:47:38;;;;;;;3.50;1.40;;;20.40;51.20;;;;;;5031865;28;20029;-77
2023/05/29 10:50:05;;;;;;;3.25;1.40;;;20.40;51.20;;;;;;5015663;28;20034;-77
2023/05/29 10:52:35;;;;;;;4.15;1.63;;;20.50;51.30;;;;;;5048005;28;20034;-78
2023/05/29 10:55:04;;;;;;;3.28;1.50;;;20.60;51.30;;;;;;5031832;28;20042;-78
2023/05/29 10:57:30;;;;;;;4.78;1.60;;;20.70;51.40;;;;;;5031353;28;20033;-76
2023/05/29 11:00:18;;;;;;;1.90;1.15;;;20.70;51.30;;;;;;5016208;28;20176;-78
2023/05/29 11:02:47;;;;;;;2.80;1.50;;;20.80;51.40;;;;;;5015761;28;20030;-76
2023/05/29 11:05:21;;;;;;;2.58;1.40;;;20.90;51.40;;;;;;5015215;28;20486;-76
2023/05/29 11:07:58;;;;;;;3.35;1.40;;;20.90;51.40;;;;;;4998080;28;20377;-77
2023/05/29 11:10:45;;;;;;;2.55;1.27;;;21.00;51.50;;;;;;5015814;28;20075;-77
2023/05/29 11:13:23;;;;;;;3.90;1.35;;;21.00;51.40;;;;;;5015729;28;20160;-78
2023/05/29 11:16:14;;;;;;;2.58;1.23;;;21.10;51.40;;;;;;5000502;28;20030;-78
2023/05/29 11:19:03;;;;;;;4.03;1.67;;;21.10;51.40;;;;;;5031381;28;20160;-78
2023/05/29 11:22:16;;;;;;;2.63;1.30;;;21.20;51.40;;;;;;5031531;28;20053;-77
2023/05/29 11:24:44;;;;;;;2.63;1.20;;;21.20;51.40;;;;;;5010165;28;20045;-77
2023/05/29 11:27:11;;;;;;;2.33;1.30;;;21.30;51.30;;;;;;5014341;28;20037;-76
2023/05/29 11:29:37;;;;;;;2.20;1.30;;;21.30;51.30;;;;;;5014601;28;20037;-77
2023/05/29 11:32:05;;;;;;;2.53;1.38;;;21.30;51.30;;;;;;5014878;28;20387;-78
2023/05/29 11:34:32;;;;;;;3.65;1.50;;;21.40;51.30;;;;;;5015047;28;20042;-78
2023/05/29 11:37:02;;;;;;;3.05;1.50;;;21.40;51.30;;;;;;5015284;28;20132;-78
2023/05/29 11:39:28;;;;;;;2.15;1.27;;;21.40;51.30;;;;;;5015134;28;20074;-79
2023/05/29 11:41:55;;;;;;;2.10;1.23;;;21.50;51.30;;;;;;5047029;28;20119;-78
2023/05/29 11:44:24;;;;;;;2.85;1.50;;;21.50;51.20;;;;;;4998590;28;20129;-78
2023/05/29 11:47:02;;;;;;;2.33;1.50;;;21.60;51.30;;;;;;5013970;28;20029;-77
2023/05/29 11:49:29;;;;;;;3.33;1.45;;;21.60;51.30;;;;;;5015531;28;20463;-78
2023/05/29 11:52:04;;;;;;;3.13;1.35;;;21.60;51.30;;;;;;5015861;28;20033;-76
2023/05/29 11:54:30;;;;;;;2.33;1.30;;;21.70;51.30;;;;;;4999335;28;20422;-77
2023/05/29 11:56:56;;;;;;;1.70;1.15;;;21.70;51.30;;;;;;5014192;28;20041;-78
2023/05/29 11:59:21;;;;;;;2.40;1.40;;;21.70;51.30;;;;;;5014827;28;20088;-78
2023/05/29 12:01:48;;;;;;;3.03;1.65;;;21.70;51.30;;;;;;4997367;28;20113;-78
2023/05/29 12:04:15;;;;;;;3.28;1.40;;;21.70;51.20;;;;;;5013537;28;20053;-77
2023/05/29 12:06:42;;;;;;;3.50;1.65;;;21.80;51.30;;;;;;4997509;28;20044;-76
2023/05/29 12:09:09;;;;;;;2.40;1.50;;;21.80;51.30;;;;;;4998265;28;20030;-77
2023/05/29 12:11:34;;;;;;;3.78;1.50;;;21.80;51.30;;;;;;5013748;28;20034;-77
2023/05/29 12:14:01;;;;;;;2.10;1.50;;;21.90;51.20;;;;;;5015886;28;20044;-77
2023/05/29 12:16:30;;;;;;;2.55;1.27;;;21.90;51.20;;;;;;5014914;28;20037;-77
2023/05/29 12:18:56;;;;;;;4.20;1.42;;;21.90;51.20;;;;;;5029993;28;20437;-75
2023/05/29 12:21:23;;;;;;;3.78;1.55;;;21.90;51.10;;;;;;5013428;28;20105;-76
2023/05/29 12:23:53;;;;;;;3.10;1.30;;;22.00;51.10;;;;;;5014453;28;20038;-76
2023/05/29 12:26:22;;;;;;;2.78;1.35;;;22.00;51.10;;;;;;5029876;28;20180;-76
2023/05/29 12:28:50;;;;;;;3.70;1.40;;;22.00;51.00;;;;;;4997135;28;20029;-76
2023/05/29 12:31:29;;;;;;;3.13;1.40;;;22.00;50.90;;;;;;5013008;28;20467;-77
2023/05/29 12:34:11;;;;;;;2.95;1.38;;;22.10;51.00;;;;;;5013091;28;20494;-77
2023/05/29 12:36:43;;;;;;;2.75;1.33;;;22.10;50.90;;;;;;5015134;28;20447;-77
2023/05/29 12:39:11;;;;;;;3.33;1.50;;;22.10;50.90;;;;;;5013570;28;20087;-76
2023/05/29 12:41:39;;;;;;;3.63;1.70;;;22.10;50.70;;;;;;5013526;28;20018;-78
2023/05/29 12:44:06;;;;;;;3.60;1.50;;;22.20;50.70;;;;;;4996973;28;20065;-76
2023/05/29 12:46:56;;;;;;;3.15;1.60;;;22.20;50.60;;;;;;4996644;28;20030;-77
2023/05/29 12:49:25;;;;;;;3.40;1.40;;;22.20;50.60;;;;;;5029751;28;20483;-77
2023/05/29 12:51:52;;;;;;;2.60;1.40;;;22.20;50.50;;;;;;5013959;28;20481;-75
2023/05/29 12:54:18;;;;;;;3.20;1.50;;;22.30;50.50;;;;;;5029105;28;20038;-77